Latest Coastal Weather Observations for Hindmarsh Island

IDS60701

Issued at 4:21 pm CST Wednesday 26 July 2017 (issued every 10 minutes, with the page automatically refreshed every 10 minutes)

About coastal observations | Map of coastal stations | Coastal observations for SA | Marine services | Other Formats
Station Details ID: 023894 Name: HINDMARSH ISLAND AWS Lat: -35.52 Lon: 138.82 Height: 11.0 m
Data from the previous 72 hours. | See also: Recent months at Hindmarsh Island
Date/Time
CST
Temp
°C
Wind Pressure Rain since
9am
mm
Weather Cloud Vis
km
Sea
Height
m
Swell
Dir  Spd
kts
Gust
kts
hPa Trend Height
m
Period
s
Dir
26/04:00pm 14.0 SE 6 8 1022.6 - 0.0 - - - - - - -
26/03:30pm 14.9 SSE 9 11 1022.9 - 0.0 - - - - - - -
26/03:00pm 15.7 SSW 9 12 1022.9 - 0.0 - - - - - - -
26/02:30pm 15.4 SSW 8 10 1022.9 - 0.0 - - - - - - -
26/02:00pm 14.6 SSW 9 11 1022.9 - 0.0 - - - - - - -
26/01:30pm 15.0 SSW 11 13 1022.9 - 0.0 - - - - - - -
26/01:00pm 15.7 SSW 11 13 1022.9 - 0.0 - - - - - - -
26/12:30pm 15.9 SW 9 12 1023.4 - 0.0 - - - - - - -
26/12:00pm 15.4 WSW 8 11 1023.9 - 0.0 - - - - - - -
26/11:30am 15.4 WSW 9 11 1023.8 - 0.0 - - - - - - -
26/11:00am 15.1 WSW 9 13 1023.9 - 0.0 - - - - - - -
26/10:30am 15.1 WSW 10 12 1023.9 - 0.0 - - - - - - -
26/10:00am 14.9 WSW 8 11 1023.8 - 0.0 - - - - - - -
26/09:30am 14.0 WSW 9 12 1023.5 - 0.0 - - - - - - -
26/09:00am 13.3 W 10 13 1023.3 - 0.0 - - - - - - -
26/08:30am 12.4 W 11 15 1022.9 - 0.0 - - - - - - -
26/08:00am 11.4 WNW 9 12 1022.7 - 0.0 - - - - - - -
26/07:30am 11.2 W 10 12 1022.2 - 0.0 - - - - - - -
26/07:00am 11.4 WNW 8 10 1021.8 - 0.0 - - - - - - -
26/06:30am 11.6 W 9 11 1021.2 - 0.0 - - - - - - -
26/06:00am 11.4 W 11 14 1020.7 - 0.0 - - - - - - -
26/05:30am 10.7 WNW 9 11 1020.3 - 0.0 - - - - - - -
26/05:00am 11.0 WNW 8 11 1020.0 - 0.0 - - - - - - -
26/04:30am 10.9 W 9 11 1020.2 - 0.0 - - - - - - -
26/04:00am 11.1 WNW 9 11 1020.3 - 0.0 - - - - - - -
26/03:30am 11.1 WNW 7 10 1020.2 - 0.0 - - - - - - -
26/03:00am 11.4 NW 7 11 1020.1 - 0.0 - - - - - - -
26/02:30am 11.9 WNW 8 11 1019.9 - 0.0 - - - - - - -
26/02:00am 12.2 WNW 11 17 1019.4 - 0.0 - - - - - - -
26/01:30am 12.6 W 10 15 1019.2 - 0.0 - - - - - - -
26/01:00am 12.5 W 12 16 1019.1 - 0.0 - - - - - - -
26/12:30am 12.8 W 12 16 1018.9 - 0.0 - - - - - - -
26/12:00am 12.8 W 12 16 1019.2 - 0.0 - - - - - - -
 
Date/Time
CST
Temp
°C
Wind Pressure Rain since
9am
mm
Weather Cloud Vis
km
Sea
Height
m
Swell
Dir  Spd
kts
Gust
kts
hPa Trend Height
m
Period
s
Dir
25/11:30pm 13.1 W 12 18 1019.1 - 0.0 - - - - - - -
25/11:00pm 13.1 W 11 15 1019.0 - 0.0 - - - - - - -
25/10:30pm 13.3 W 12 16 1018.9 - 0.0 - - - - - - -
25/10:00pm 13.4 W 11 15 1018.7 - 0.0 - - - - - - -
25/09:30pm 13.6 W 13 17 1018.5 - 0.0 - - - - - - -
25/09:00pm 13.7 W 13 18 1018.3 - 0.0 - - - - - - -
25/08:30pm 13.9 W 13 17 1018.1 - 0.0 - - - - - - -
25/08:00pm 13.9 WNW 11 16 1017.9 - 0.0 - - - - - - -
25/07:30pm 13.9 WNW 12 16 1017.7 - 0.0 - - - - - - -
25/07:00pm 13.8 WNW 13 19 1017.5 - 0.0 - - - - - - -
25/06:30pm 14.1 WNW 12 18 1017.2 - 0.0 - - - - - - -
25/06:00pm 14.4 WNW 13 19 1016.7 - 0.0 - - - - - - -
25/05:30pm 14.5 WNW 15 21 1016.4 - 0.0 - - - - - - -
25/05:00pm 14.7 WNW 15 20 1016.4 - 0.0 - - - - - - -
25/04:30pm 15.3 WNW 15 21 1016.4 - 0.0 - - - - - - -
25/04:00pm 16.8 WNW 17 23 1016.4 - 0.0 - - - - - - -
25/03:36pm 16.8 WNW 18 28 1016.1 - 0.0 - - - - - - -
25/03:30pm 17.1 WNW 19 28 1016.1 - 0.0 - - - - - - -
25/03:02pm 17.0 WNW 16 27 1016.1 - 0.0 - - - - - - -
25/03:00pm 17.0 WNW 16 23 1016.2 - 0.0 - - - - - - -
25/02:41pm 17.1 WNW 19 29 1016.2 - 0.0 - - - - - - -
25/02:30pm 16.6 WNW 20 28 1016.0 - 0.0 - - - - - - -
25/02:00pm 17.5 WNW 18 27 1015.9 - 0.0 - - - - - - -
25/01:52pm 17.3 WNW 17 27 1015.7 - 0.0 - - - - - - -
25/01:30pm 17.5 WNW 17 24 1015.8 - 0.0 - - - - - - -
25/01:00pm 17.4 WNW 15 25 1015.8 - 0.0 - - - - - - -
25/12:43pm 17.1 WNW 18 28 1016.1 - 0.0 - - - - - - -
25/12:30pm 16.8 WNW 18 24 1016.2 - 0.0 - - - - - - -
25/12:11pm 16.7 W 19 31 1016.2 - 0.0 - - - - - - -
25/12:00pm 16.7 W 17 25 1016.4 - 0.0 - - - - - - -
25/11:42am 16.8 W 16 26 1016.6 - 0.0 - - - - - - -
25/11:30am 16.8 WNW 13 18 1016.8 - 0.0 - - - - - - -
25/11:00am 16.9 WNW 11 19 1016.7 - 0.0 - - - - - - -
25/10:30am 15.8 WNW 14 19 1016.9 - 0.0 - - - - - - -
25/10:00am 15.6 WNW 10 15 1017.0 - 0.0 - - - - - - -
25/09:30am 15.0 WNW 11 16 1016.9 - 0.0 - - - - - - -
25/09:00am 15.0 WNW 5 7 1016.9 - 0.0 - - - - - - -
25/08:30am 14.2 WNW 8 13 1016.7 - 0.0 - - - - - - -
25/08:00am 12.6 WNW 7 11 1016.4 - 0.0 - - - - - - -
25/07:30am 12.1 NW 9 11 1016.2 - 0.0 - - - - - - -
25/07:00am 12.1 NW 9 11 1016.1 - 0.0 - - - - - - -
25/06:30am 13.1 NW 13 16 1015.7 - 0.0 - - - - - - -
25/06:00am 13.9 NW 15 23 1015.4 - 0.0 - - - - - - -
25/05:30am 13.0 NNW 11 15 1015.3 - 0.0 - - - - - - -
25/05:00am 12.8 NW 8 11 1015.1 - 0.0 - - - - - - -
25/04:30am 13.9 NW 11 16 1015.1 - 0.0 - - - - - - -
25/04:00am 12.6 NW 9 12 1015.2 - 0.0 - - - - - - -
25/03:30am 12.9 W 8 11 1015.3 - 0.0 - - - - - - -
25/03:00am 13.8 NNW 11 16 1015.2 - 0.0 - - - - - - -
25/02:30am 14.6 NNW 13 17 1015.4 - 0.0 - - - - - - -
25/02:00am 14.6 NNW 14 18 1015.5 - 0.0 - - - - - - -
25/01:30am 12.8 N 12 15 1015.7 - 0.0 - - - - - - -
25/01:00am 10.0 N 10 11 1015.9 - 0.0 - - - - - - -
25/12:30am 9.3 N 9 11 1016.2 - 0.0 - - - - - - -
25/12:00am 9.2 NNE 9 11 1016.4 - 0.0 - - - - - - -
 
Date/Time
CST
Temp
°C
Wind Pressure Rain since
9am
mm
Weather Cloud Vis
km
Sea
Height
m
Swell
Dir  Spd
kts
Gust
kts
hPa Trend Height
m
Period
s
Dir
24/11:30pm 9.2 NNE 9 10 1016.8 - 0.0 - - - - - - -
24/11:00pm 9.9 N 9 11 1017.1 - 0.0 - - - - - - -
24/10:30pm 9.6 NNE 9 10 1017.4 - 0.0 - - - - - - -
24/10:00pm 10.0 NNE 9 11 1017.7 - 0.0 - - - - - - -
24/09:30pm 10.0 NNE 7 8 1017.9 - 0.0 - - - - - - -
24/09:00pm 11.1 NNE 8 9 1018.0 - 0.0 - - - - - - -
24/08:30pm 12.2 N 7 9 1018.2 - 0.0 - - - - - - -
24/08:00pm 12.7 N 7 8 1018.2 - 0.0 - - - - - - -
24/07:30pm 14.0 NNW 10 13 1018.1 - 0.0 - - - - - - -
24/07:00pm 13.5 NNW 8 11 1018.0 - 0.0 - - - - - - -
24/06:30pm 13.5 NNW 6 7 1017.9 - 0.0 - - - - - - -
24/06:00pm 14.7 NNW 7 8 1017.9 - 0.0 - - - - - - -
24/05:30pm 15.4 NNW 8 11 1017.9 - 0.0 - - - - - - -
24/05:00pm 16.5 NNW 12 15 1017.7 - 0.0 - - - - - - -
24/04:30pm 17.1 NW 10 14 1017.8 - 0.0 - - - - - - -
24/04:00pm 17.2 NW 11 16 1017.9 - 0.0 - - - - - - -
24/03:30pm 17.1 NW 12 18 1018.1 - 0.0 - - - - - - -
24/03:00pm 17.4 NW 14 19 1018.3 - 0.0 - - - - - - -
24/02:30pm 17.1 NW 15 22 1018.2 - 0.0 - - - - - - -
24/02:00pm 16.4 NW 18 24 1018.5 - 0.0 - - - - - - -
24/01:30pm 17.2 NW 14 19 1018.7 - 0.0 - - - - - - -
24/01:00pm 17.1 NNW 11 17 1019.1 - 0.0 - - - - - - -
24/12:30pm 16.7 NW 13 19 1019.7 - 0.0 - - - - - - -
24/12:00pm 16.6 NNW 11 15 1019.9 - 0.0 - - - - - - -
24/11:30am 16.7 NNW 10 16 1020.3 - 0.0 - - - - - - -
24/11:00am 15.2 NNW 11 15 1020.7 - 0.0 - - - - - - -
24/10:30am 13.9 NNW 11 15 1021.0 - 0.0 - - - - - - -
24/10:00am 13.6 NNW 13 20 1021.1 - 0.0 - - - - - - -
24/09:30am 13.0 NNW 11 15 1021.1 - 0.0 - - - - - - -
24/09:00am 12.8 NNW 6 9 1021.1 - 1.0 - - - - - - -
24/08:30am 12.0 N 7 10 1021.0 - 1.0 - - - - - - -
24/08:00am 11.0 N 8 10 1020.8 - 1.0 - - - - - - -
24/07:30am 10.6 NNW 8 11 1020.6 - 1.0 - - - - - - -
24/07:00am 10.5 NNW 6 7 1020.4 - 1.0 - - - - - - -
24/06:30am 10.9 NW 6 8 1020.2 - 1.0 - - - - - - -
24/06:00am 10.7 NNW 6 8 1020.0 - 1.0 - - - - - - -
24/05:30am 11.0 NNW 6 7 1019.8 - 1.0 - - - - - - -
24/05:00am 11.1 NW 7 8 1019.6 - 1.0 - - - - - - -
24/04:30am 10.7 NNW 8 9 1019.3 - 1.0 - - - - - - -
24/04:00am 10.9 NNW 7 10 1019.3 - 1.0 - - - - - - -
24/03:30am 10.2 NW 8 11 1019.5 - 0.8 - - - - - - -
24/03:00am 10.1 NNW 7 8 1019.6 - 0.8 - - - - - - -
24/02:30am 10.3 NNW 7 9 1019.6 - 0.8 - - - - - - -
24/02:00am 10.1 N 6 7 1019.5 - 0.8 - - - - - - -
24/01:30am 10.3 NNW 6 7 1019.6 - 0.8 - - - - - - -
24/01:00am 10.1 NNW 7 9 1019.7 - 0.8 - - - - - - -
24/12:30am 9.7 NNW 7 8 1019.8 - 0.8 - - - - - - -
24/12:00am 10.0 WNW 7 8 1019.7 - 0.8 - - - - - - -
 
Date/Time
CST
Temp
°C
Wind Pressure Rain since
9am
mm
Weather Cloud Vis
km
Sea
Height
m
Swell
Dir  Spd
kts
Gust
kts
hPa Trend Height
m
Period
s
Dir
23/11:30pm 9.9 WNW 6 7 1019.8 - 0.8 - - - - - - -
23/11:00pm 10.1 NW 7 8 1019.9 - 0.8 - - - - - - -
23/10:30pm 10.0 NNW 7 9 1019.8 - 0.8 - - - - - - -
23/10:00pm 10.6 NNW 8 9 1019.5 - 0.8 - - - - - - -
23/09:30pm 10.8 NW 7 8 1019.4 - 0.8 - - - - - - -
23/09:00pm 11.2 NW 5 7 1019.2 - 0.8 - - - - - - -
23/08:30pm 11.7 WNW 6 7 1018.9 - 0.8 - - - - - - -
23/08:00pm 12.0 WNW 9 11 1018.7 - 0.8 - - - - - - -
23/07:30pm 12.0 WNW 7 9 1018.4 - 0.8 - - - - - - -
23/07:00pm 12.7 W 9 12 1018.0 - 0.8 - - - - - - -
23/06:30pm 12.8 WSW 9 13 1018.0 - 0.8 - - - - - - -
23/06:00pm 12.7 SW 15 21 1017.7 - 0.6 - - - - - - -
23/05:50pm 13.4 WSW 11 21 1017.5 - 0.6 - - - - - - -
23/05:30pm 13.7 W 6 9 1017.3 - 0.6 - - - - - - -
23/05:00pm 13.6 W 7 9 1017.3 - 0.6 - - - - - - -
23/04:30pm 13.6 WSW 9 12 1017.1 - 0.6 - - - - - - -

Other Formats:

Comma delimited format used in spreadsheet applications
http://www.bom.gov.au/fwo/IDS60701/IDS60701.94677.axf

JavaScript Object Notation format (JSON) in row-major order
http://www.bom.gov.au/fwo/IDS60701/IDS60701.94677.json